Главная страница
METAR-TAF:

METAR-TAF

Аэропорты :

Тете, Мозамбик

широта: 16-06S, долгота: 033-38E, высота над уровнем моря: 160 м

Текущие метеонаблюдения

Эта сводка был подготовлена 16 минут назад, в 13:00 UTC
Штиль
Температура 35°C
Влажность 50%
Давление 1009 hPa
Видимость 10 км и более
Рассеянная облачность на высоте 2000 фута
небольшая облачность на высоте 2500 фута, Кучево-дождевые.
Рассеянная облачность

METAR: FQTT 031300Z 00000KT 9999 BKN020 FEW025CB BKN/// 35/23 Q1009 RMK CB TO NE

Время: 15:16 (13:16 UTC)

Прогноз

Эта сводка был подготовлена 3 часа и 16 минут назад, в 10:00 UTC
Прогноз действительный с 03-го 12 UTC до 04-го 12 UTC
Ветер 10 Узел от северо-восточный
Видимость 10 км и более
Отдельные облака на высоте 2000 фута
изменения
С 03-го 18 UTC до 03-го 20 UTC
Ветер 8 Узел от южный

TAF: FQTT 031000Z 0312/0412 05010KT 9999 SCT020 TX36/0313Z TN24/0402Z BECMG 0318/0320 17008KT

Метеонаблюдения и прогнозы для более 4000 аэропортов (сводки METAR и TAF).

Имеющиеся станции представлены на карте желтыми и красными точками.

Чтобы увидеть название станции, наведите на нее мышь.

Затем щелкните, чтобы увидеть метеонаблюдения и метеопрогнозы.

Управление картой: чтобы увеличить масштаб, щелкните зеленые кнопки с черным крестиком; чтобы уменьшить масштаб, щелкните зеленую кнопку с тире; для просмотра соседних карт щелкайте зеленые стрелки.


METAR-TAF: